Bari/Karol Wojtyła Airport

Airport
ICAO code: 
LIBD
IATA Code: 
BRI
Summary
ICAO Region: 
EUR
Territory: 
Location: 
Palese, Puglia
Serving: 
Bari
Elevation: 
177 ft
Coordinates: 
Aerial View: 
41° 8' 16.046" N, 16° 45' 41.103" E
Metar
Observation
LIBD 291520Z 20010KT 9999 SCT040 09/05 Q0996
Station
Bari / Palese Macchie
Date/Time
2021-11-29 15:20:00
Wind direction
200°
Wind speed
10 kts
Lowest cloud amount
scattered clouds
Temperature
9°C
Dew point
5°C
Humidity
76%
QNH
996 hPa
Weather condition
n/a

International airport serving city of Bari, Italy.

Climatology

Dry-summer subtropical ”Mediterranean" climate (Köppen climate classification Csa) - characterized by hot, dry summers and mild winters. During the summer, subtropical high pressure cells dominate, making rainfall unlikely except for the occasional thunderstorm. In the winter, periodic storms bring rain (snow at higher elevations).

Runways

Designator Length Width Surface Rops
7/25 2440 45 ASP Yes/Yes
Airport map: 
Aerial View: 

SKYbrary Partners:

Safety knowledge contributed by: